sensor_id;sensor_type;location;lat;lon;timestamp;temperature;humidity
44447;DHT22;30152;52.066;5.358;2023-06-22T06:23:32;20.60;99.90
44447;DHT22;30152;52.066;5.358;2023-06-22T06:25:58;20.50;99.90
44447;DHT22;30152;52.066;5.358;2023-06-22T06:28:24;20.90;99.90
44447;DHT22;30152;52.066;5.358;2023-06-22T06:30:50;21.60;99.90
44447;DHT22;30152;52.066;5.358;2023-06-22T06:33:17;22.10;99.90
44447;DHT22;30152;52.066;5.358;2023-06-22T06:35:42;23.40;99.90
44447;DHT22;30152;52.066;5.358;2023-06-22T06:38:08;24.30;99.30
44447;DHT22;30152;52.066;5.358;2023-06-22T06:40:33;24.60;99.00
44447;DHT22;30152;52.066;5.358;2023-06-22T06:42:59;24.90;97.00
44447;DHT22;30152;52.066;5.358;2023-06-22T06:45:24;24.60;96.90
44447;DHT22;30152;52.066;5.358;2023-06-22T06:47:51;24.60;97.20
44447;DHT22;30152;52.066;5.358;2023-06-22T06:50:17;23.80;97.00
44447;DHT22;30152;52.066;5.358;2023-06-22T06:52:43;23.10;98.30
44447;DHT22;30152;52.066;5.358;2023-06-22T06:55:10;22.50;99.80
44447;DHT22;30152;52.066;5.358;2023-06-22T06:57:38;22.20;99.90
44447;DHT22;30152;52.066;5.358;2023-06-22T07:00:05;22.20;99.90
44447;DHT22;30152;52.066;5.358;2023-06-22T07:02:39;22.00;99.90
44447;DHT22;30152;52.066;5.358;2023-06-22T07:05:05;21.90;99.90
44447;DHT22;30152;52.066;5.358;2023-06-22T07:07:31;21.60;99.90
44447;DHT22;30152;52.066;5.358;2023-06-22T07:09:57;21.50;99.90
44447;DHT22;30152;52.066;5.358;2023-06-22T07:12:22;21.50;99.90
44447;DHT22;30152;52.066;5.358;2023-06-22T07:14:48;21.50;99.90
44447;DHT22;30152;52.066;5.358;2023-06-22T07:17:14;21.60;99.90
44447;DHT22;30152;52.066;5.358;2023-06-22T07:19:39;21.70;99.90
44447;DHT22;30152;52.066;5.358;2023-06-22T07:22:05;21.90;99.90
44447;DHT22;30152;52.066;5.358;2023-06-22T07:24:31;22.00;99.90
44447;DHT22;30152;52.066;5.358;2023-06-22T07:26:57;22.10;99.90
44447;DHT22;30152;52.066;5.358;2023-06-22T07:29:24;22.40;99.90
44447;DHT22;30152;52.066;5.358;2023-06-22T07:31:50;22.50;99.90
44447;DHT22;30152;52.066;5.358;2023-06-22T07:34:21;22.70;99.90
44447;DHT22;30152;52.066;5.358;2023-06-22T07:36:47;22.80;99.90
44447;DHT22;30152;52.066;5.358;2023-06-22T07:39:12;22.80;99.90
44447;DHT22;30152;52.066;5.358;2023-06-22T07:41:39;22.90;99.90
44447;DHT22;30152;52.066;5.358;2023-06-22T07:44:06;22.80;99.50
44447;DHT22;30152;52.066;5.358;2023-06-22T07:46:32;22.80;99.40
44447;DHT22;30152;52.066;5.358;2023-06-22T07:48:57;22.80;99.90
44447;DHT22;30152;52.066;5.358;2023-06-22T07:51:23;23.00;99.80
44447;DHT22;30152;52.066;5.358;2023-06-22T07:53:49;23.00;98.80
44447;DHT22;30152;52.066;5.358;2023-06-22T07:56:15;23.00;98.90
44447;DHT22;30152;52.066;5.358;2023-06-22T07:58:47;23.00;98.30
44447;DHT22;30152;52.066;5.358;2023-06-22T08:01:16;23.00;98.20
44447;DHT22;30152;52.066;5.358;2023-06-22T08:03:42;23.20;98.30
44447;DHT22;30152;52.066;5.358;2023-06-22T08:06:08;23.20;97.80
44447;DHT22;30152;52.066;5.358;2023-06-22T08:08:35;23.30;97.50
44447;DHT22;30152;52.066;5.358;2023-06-22T08:11:01;23.40;97.60
44447;DHT22;30152;52.066;5.358;2023-06-22T08:13:26;23.40;97.60
44447;DHT22;30152;52.066;5.358;2023-06-22T08:15:52;23.60;97.80
44447;DHT22;30152;52.066;5.358;2023-06-22T08:18:17;23.60;97.20
44447;DHT22;30152;52.066;5.358;2023-06-22T08:20:43;23.80;97.20
44447;DHT22;30152;52.066;5.358;2023-06-22T08:23:08;24.20;96.50
44447;DHT22;30152;52.066;5.358;2023-06-22T08:25:34;24.10;95.70
44447;DHT22;30152;52.066;5.358;2023-06-22T08:28:02;24.10;96.10
44447;DHT22;30152;52.066;5.358;2023-06-22T08:30:28;24.20;95.60
44447;DHT22;30152;52.066;5.358;2023-06-22T08:32:53;24.20;96.00
44447;DHT22;30152;52.066;5.358;2023-06-22T08:35:21;24.20;95.60
44447;DHT22;30152;52.066;5.358;2023-06-22T08:37:47;24.30;94.80
44447;DHT22;30152;52.066;5.358;2023-06-22T08:40:18;24.20;94.60
44447;DHT22;30152;52.066;5.358;2023-06-22T08:42:45;24.30;95.70
44447;DHT22;30152;52.066;5.358;2023-06-22T08:45:11;24.30;95.10
44447;DHT22;30152;52.066;5.358;2023-06-22T08:47:36;24.40;94.80
44447;DHT22;30152;52.066;5.358;2023-06-22T08:50:02;24.40;94.10
44447;DHT22;30152;52.066;5.358;2023-06-22T08:52:31;24.50;93.50
44447;DHT22;30152;52.066;5.358;2023-06-22T08:54:56;24.60;93.40
44447;DHT22;30152;52.066;5.358;2023-06-22T08:57:23;24.60;92.90
44447;DHT22;30152;52.066;5.358;2023-06-22T08:59:49;24.60;92.90
44447;DHT22;30152;52.066;5.358;2023-06-22T09:02:17;24.60;93.40
44447;DHT22;30152;52.066;5.358;2023-06-22T09:04:43;24.70;93.50
44447;DHT22;30152;52.066;5.358;2023-06-22T09:07:08;24.60;93.60
44447;DHT22;30152;52.066;5.358;2023-06-22T09:09:34;24.70;94.20
44447;DHT22;30152;52.066;5.358;2023-06-22T09:11:59;24.60;94.20
44447;DHT22;30152;52.066;5.358;2023-06-22T09:14:25;24.50;94.50
44447;DHT22;30152;52.066;5.358;2023-06-22T09:16:50;24.50;94.20
44447;DHT22;30152;52.066;5.358;2023-06-22T09:19:16;24.50;94.30
44447;DHT22;30152;52.066;5.358;2023-06-22T09:21:41;24.40;94.00
44447;DHT22;30152;52.066;5.358;2023-06-22T09:24:07;24.60;94.20
44447;DHT22;30152;52.066;5.358;2023-06-22T09:26:33;24.70;93.50
44447;DHT22;30152;52.066;5.358;2023-06-22T09:28:59;24.80;92.80
44447;DHT22;30152;52.066;5.358;2023-06-22T09:31:24;24.90;91.70
44447;DHT22;30152;52.066;5.358;2023-06-22T09:33:55;25.00;92.00
44447;DHT22;30152;52.066;5.358;2023-06-22T09:36:21;25.00;90.70
44447;DHT22;30152;52.066;5.358;2023-06-22T09:38:47;25.00;90.60
44447;DHT22;30152;52.066;5.358;2023-06-22T09:41:13;25.10;90.60
44447;DHT22;30152;52.066;5.358;2023-06-22T09:43:38;25.00;90.20
44447;DHT22;30152;52.066;5.358;2023-06-22T09:46:04;25.10;90.60
44447;DHT22;30152;52.066;5.358;2023-06-22T09:48:30;25.10;90.40
44447;DHT22;30152;52.066;5.358;2023-06-22T09:50:56;25.10;90.00
44447;DHT22;30152;52.066;5.358;2023-06-22T09:53:21;25.10;89.60
44447;DHT22;30152;52.066;5.358;2023-06-22T09:55:47;25.00;89.60
44447;DHT22;30152;52.066;5.358;2023-06-22T09:58:12;24.80;89.40
44447;DHT22;30152;52.066;5.358;2023-06-22T10:00:38;24.70;90.40
44447;DHT22;30152;52.066;5.358;2023-06-22T10:03:04;24.80;90.50
44447;DHT22;30152;52.066;5.358;2023-06-22T10:05:29;24.70;90.70
44447;DHT22;30152;52.066;5.358;2023-06-22T10:07:55;24.60;90.30
44447;DHT22;30152;52.066;5.358;2023-06-22T10:10:20;24.50;90.40
44447;DHT22;30152;52.066;5.358;2023-06-22T10:12:47;24.40;90.30
44447;DHT22;30152;52.066;5.358;2023-06-22T10:15:14;24.40;90.80
44447;DHT22;30152;52.066;5.358;2023-06-22T10:17:39;24.30;91.00
44447;DHT22;30152;52.066;5.358;2023-06-22T10:20:08;24.30;91.20
44447;DHT22;30152;52.066;5.358;2023-06-22T10:22:41;24.30;90.90
44447;DHT22;30152;52.066;5.358;2023-06-22T10:25:07;24.30;91.80
44447;DHT22;30152;52.066;5.358;2023-06-22T10:27:33;24.30;91.40
44447;DHT22;30152;52.066;5.358;2023-06-22T10:29:59;24.30;91.40
44447;DHT22;30152;52.066;5.358;2023-06-22T10:32:24;24.30;91.20
44447;DHT22;30152;52.066;5.358;2023-06-22T10:34:50;24.20;91.10
44447;DHT22;30152;52.066;5.358;2023-06-22T10:37:15;24.20;91.70
44447;DHT22;30152;52.066;5.358;2023-06-22T10:39:41;24.20;91.50
44447;DHT22;30152;52.066;5.358;2023-06-22T10:42:06;24.10;90.60
44447;DHT22;30152;52.066;5.358;2023-06-22T10:44:32;24.10;90.50
44447;DHT22;30152;52.066;5.358;2023-06-22T10:46:58;24.10;89.10
44447;DHT22;30152;52.066;5.358;2023-06-22T10:49:23;23.90;88.10
44447;DHT22;30152;52.066;5.358;2023-06-22T10:51:49;24.00;87.50
44447;DHT22;30152;52.066;5.358;2023-06-22T10:54:14;24.00;88.30
44447;DHT22;30152;52.066;5.358;2023-06-22T10:56:42;24.10;88.90
44447;DHT22;30152;52.066;5.358;2023-06-22T10:59:08;24.20;88.70
44447;DHT22;30152;52.066;5.358;2023-06-22T11:01:33;24.20;88.40
44447;DHT22;30152;52.066;5.358;2023-06-22T11:03:59;24.30;89.40
44447;DHT22;30152;52.066;5.358;2023-06-22T11:06:24;24.30;88.40
44447;DHT22;30152;52.066;5.358;2023-06-22T11:08:50;24.20;88.40
44447;DHT22;30152;52.066;5.358;2023-06-22T11:11:15;24.30;89.50
44447;DHT22;30152;52.066;5.358;2023-06-22T11:13:43;24.20;88.50
44447;DHT22;30152;52.066;5.358;2023-06-22T11:16:09;24.30;89.40
44447;DHT22;30152;52.066;5.358;2023-06-22T11:18:35;24.30;88.90
44447;DHT22;30152;52.066;5.358;2023-06-22T11:21:01;24.30;89.40
44447;DHT22;30152;52.066;5.358;2023-06-22T11:23:26;24.40;90.00
44447;DHT22;30152;52.066;5.358;2023-06-22T11:25:53;24.40;89.80
44447;DHT22;30152;52.066;5.358;2023-06-22T11:28:18;24.40;89.70
44447;DHT22;30152;52.066;5.358;2023-06-22T11:30:44;24.40;90.20
44447;DHT22;30152;52.066;5.358;2023-06-22T11:33:10;24.50;90.60
44447;DHT22;30152;52.066;5.358;2023-06-22T11:35:35;24.60;90.70
44447;DHT22;30152;52.066;5.358;2023-06-22T11:38:01;24.60;89.90
44447;DHT22;30152;52.066;5.358;2023-06-22T11:40:26;24.60;90.20
44447;DHT22;30152;52.066;5.358;2023-06-22T11:42:52;24.70;89.60
44447;DHT22;30152;52.066;5.358;2023-06-22T11:45:17;24.60;89.30
44447;DHT22;30152;52.066;5.358;2023-06-22T11:47:44;24.70;89.40
44447;DHT22;30152;52.066;5.358;2023-06-22T11:50:09;24.70;90.00
44447;DHT22;30152;52.066;5.358;2023-06-22T11:52:35;24.70;90.00
44447;DHT22;30152;52.066;5.358;2023-06-22T11:55:01;24.70;90.00
44447;DHT22;30152;52.066;5.358;2023-06-22T11:57:29;24.70;90.20
44447;DHT22;30152;52.066;5.358;2023-06-22T11:59:55;24.70;90.50
44447;DHT22;30152;52.066;5.358;2023-06-22T12:02:20;24.80;90.60
44447;DHT22;30152;52.066;5.358;2023-06-22T12:04:45;24.80;90.70
44447;DHT22;30152;52.066;5.358;2023-06-22T12:07:11;24.80;90.90
44447;DHT22;30152;52.066;5.358;2023-06-22T12:09:37;24.80;91.40
44447;DHT22;30152;52.066;5.358;2023-06-22T12:12:03;24.80;91.60
44447;DHT22;30152;52.066;5.358;2023-06-22T12:14:28;24.80;92.00
44447;DHT22;30152;52.066;5.358;2023-06-22T12:19:20;24.90;92.20
44447;DHT22;30152;52.066;5.358;2023-06-22T12:21:45;24.80;92.50
44447;DHT22;30152;52.066;5.358;2023-06-22T12:24:11;24.60;91.90
44447;DHT22;30152;52.066;5.358;2023-06-22T12:26:37;24.50;91.80
44447;DHT22;30152;52.066;5.358;2023-06-22T12:29:02;24.40;91.80
44447;DHT22;30152;52.066;5.358;2023-06-22T12:31:28;24.20;92.10
44447;DHT22;30152;52.066;5.358;2023-06-22T12:33:53;24.10;93.10
44447;DHT22;30152;52.066;5.358;2023-06-22T12:36:19;24.10;94.30
44447;DHT22;30152;52.066;5.358;2023-06-22T12:38:44;23.90;94.60
44447;DHT22;30152;52.066;5.358;2023-06-22T12:41:10;23.90;95.50
44447;DHT22;30152;52.066;5.358;2023-06-22T12:43:35;23.90;96.00
44447;DHT22;30152;52.066;5.358;2023-06-22T12:46:01;23.70;96.20
44447;DHT22;30152;52.066;5.358;2023-06-22T12:48:27;23.40;96.70
44447;DHT22;30152;52.066;5.358;2023-06-22T12:50:53;23.20;96.90
44447;DHT22;30152;52.066;5.358;2023-06-22T12:53:19;23.10;98.30
44447;DHT22;30152;52.066;5.358;2023-06-22T12:55:44;23.00;99.00
44447;DHT22;30152;52.066;5.358;2023-06-22T12:58:10;23.00;99.90
44447;DHT22;30152;52.066;5.358;2023-06-22T13:00:35;22.80;99.90
44447;DHT22;30152;52.066;5.358;2023-06-22T13:03:01;22.70;99.90
44447;DHT22;30152;52.066;5.358;2023-06-22T13:05:26;22.60;99.90
44447;DHT22;30152;52.066;5.358;2023-06-22T13:07:52;22.40;99.90
44447;DHT22;30152;52.066;5.358;2023-06-22T13:10:17;22.30;99.90
44447;DHT22;30152;52.066;5.358;2023-06-22T13:12:43;22.20;99.90
44447;DHT22;30152;52.066;5.358;2023-06-22T13:15:08;21.90;99.90
44447;DHT22;30152;52.066;5.358;2023-06-22T13:17:34;21.80;99.90
44447;DHT22;30152;52.066;5.358;2023-06-22T13:20:00;21.90;99.90
44447;DHT22;30152;52.066;5.358;2023-06-22T13:22:35;21.70;99.90
44447;DHT22;30152;52.066;5.358;2023-06-22T13:25:08;21.30;99.90
44447;DHT22;30152;52.066;5.358;2023-06-22T13:27:40;21.30;99.90
44447;DHT22;30152;52.066;5.358;2023-06-22T13:30:06;21.20;99.90
44447;DHT22;30152;52.066;5.358;2023-06-22T13:32:32;21.20;99.90
44447;DHT22;30152;52.066;5.358;2023-06-22T13:34:58;21.20;99.90
44447;DHT22;30152;52.066;5.358;2023-06-22T13:37:23;21.10;99.90
44447;DHT22;30152;52.066;5.358;2023-06-22T13:39:49;21.10;99.90
44447;DHT22;30152;52.066;5.358;2023-06-22T13:42:14;21.00;99.90
44447;DHT22;30152;52.066;5.358;2023-06-22T13:44:40;21.00;99.90
44447;DHT22;30152;52.066;5.358;2023-06-22T13:47:06;21.00;99.90
44447;DHT22;30152;52.066;5.358;2023-06-22T13:49:32;21.00;99.90
44447;DHT22;30152;52.066;5.358;2023-06-22T13:51:57;21.20;99.90
44447;DHT22;30152;52.066;5.358;2023-06-22T13:54:23;21.40;99.90
44447;DHT22;30152;52.066;5.358;2023-06-22T13:56:48;21.50;99.90
44447;DHT22;30152;52.066;5.358;2023-06-22T13:59:14;21.50;99.90
44447;DHT22;30152;52.066;5.358;2023-06-22T14:01:39;21.40;99.90
44447;DHT22;30152;52.066;5.358;2023-06-22T14:04:06;21.40;99.90
44447;DHT22;30152;52.066;5.358;2023-06-22T14:06:31;21.40;99.90
44447;DHT22;30152;52.066;5.358;2023-06-22T14:08:57;21.40;99.90
44447;DHT22;30152;52.066;5.358;2023-06-22T14:11:22;21.30;99.90
44447;DHT22;30152;52.066;5.358;2023-06-22T14:13:48;21.30;99.90
44447;DHT22;30152;52.066;5.358;2023-06-22T14:16:14;21.20;99.90
44447;DHT22;30152;52.066;5.358;2023-06-22T14:18:39;21.30;99.90
44447;DHT22;30152;52.066;5.358;2023-06-22T14:21:05;21.30;99.90
44447;DHT22;30152;52.066;5.358;2023-06-22T14:23:30;21.40;99.90
44447;DHT22;30152;52.066;5.358;2023-06-22T14:25:56;21.60;99.90
44447;DHT22;30152;52.066;5.358;2023-06-22T14:28:21;21.60;99.90
44447;DHT22;30152;52.066;5.358;2023-06-22T14:30:47;21.50;99.90
44447;DHT22;30152;52.066;5.358;2023-06-22T14:33:13;21.60;99.90
44447;DHT22;30152;52.066;5.358;2023-06-22T14:35:38;21.70;99.90
44447;DHT22;30152;52.066;5.358;2023-06-22T14:38:04;21.50;99.90
44447;DHT22;30152;52.066;5.358;2023-06-22T14:40:29;21.40;99.90
44447;DHT22;30152;52.066;5.358;2023-06-22T14:42:55;21.40;99.90
44447;DHT22;30152;52.066;5.358;2023-06-22T14:45:22;21.40;99.90
44447;DHT22;30152;52.066;5.358;2023-06-22T14:47:48;21.30;99.90
44447;DHT22;30152;52.066;5.358;2023-06-22T14:50:14;21.30;99.90
44447;DHT22;30152;52.066;5.358;2023-06-22T14:52:39;21.40;99.90
44447;DHT22;30152;52.066;5.358;2023-06-22T14:55:05;21.20;99.90
44447;DHT22;30152;52.066;5.358;2023-06-22T14:57:31;21.10;99.90
44447;DHT22;30152;52.066;5.358;2023-06-22T14:59:56;21.30;99.90
44447;DHT22;30152;52.066;5.358;2023-06-22T15:02:22;20.90;99.90
44447;DHT22;30152;52.066;5.358;2023-06-22T15:04:48;20.80;99.90
44447;DHT22;30152;52.066;5.358;2023-06-22T15:07:14;20.80;99.90
44447;DHT22;30152;52.066;5.358;2023-06-22T15:09:39;20.80;99.90
44447;DHT22;30152;52.066;5.358;2023-06-22T15:12:08;20.70;99.90
44447;DHT22;30152;52.066;5.358;2023-06-22T15:14:38;20.50;99.90
44447;DHT22;30152;52.066;5.358;2023-06-22T15:17:04;20.50;99.90
44447;DHT22;30152;52.066;5.358;2023-06-22T15:19:29;20.50;99.90
44447;DHT22;30152;52.066;5.358;2023-06-22T15:21:55;20.30;99.90
44447;DHT22;30152;52.066;5.358;2023-06-22T15:24:20;20.30;99.90
44447;DHT22;30152;52.066;5.358;2023-06-22T15:26:46;20.30;99.90
44447;DHT22;30152;52.066;5.358;2023-06-22T15:29:11;20.20;99.90
44447;DHT22;30152;52.066;5.358;2023-06-22T15:31:37;20.20;99.90
44447;DHT22;30152;52.066;5.358;2023-06-22T15:34:02;20.00;99.90
44447;DHT22;30152;52.066;5.358;2023-06-22T15:36:29;20.10;99.90
44447;DHT22;30152;52.066;5.358;2023-06-22T15:38:54;19.90;99.90
44447;DHT22;30152;52.066;5.358;2023-06-22T15:41:20;20.10;99.90
44447;DHT22;30152;52.066;5.358;2023-06-22T15:43:45;20.00;99.90
44447;DHT22;30152;52.066;5.358;2023-06-22T15:46:11;20.00;99.90
44447;DHT22;30152;52.066;5.358;2023-06-22T15:48:36;20.00;99.90
44447;DHT22;30152;52.066;5.358;2023-06-22T15:51:02;20.00;99.90
44447;DHT22;30152;52.066;5.358;2023-06-22T15:53:27;19.90;99.90
44447;DHT22;30152;52.066;5.358;2023-06-22T15:55:53;19.80;99.90
44447;DHT22;30152;52.066;5.358;2023-06-22T15:58:20;19.90;99.90
44447;DHT22;30152;52.066;5.358;2023-06-22T16:00:45;19.80;99.90
44447;DHT22;30152;52.066;5.358;2023-06-22T16:03:14;19.80;99.90
44447;DHT22;30152;52.066;5.358;2023-06-22T16:05:40;19.80;99.90
44447;DHT22;30152;52.066;5.358;2023-06-22T16:08:09;19.80;99.90
44447;DHT22;30152;52.066;5.358;2023-06-22T16:10:37;19.80;99.90
44447;DHT22;30152;52.066;5.358;2023-06-22T16:13:03;19.70;99.90
44447;DHT22;30152;52.066;5.358;2023-06-22T16:15:28;19.70;99.90
44447;DHT22;30152;52.066;5.358;2023-06-22T16:17:54;19.70;99.90
44447;DHT22;30152;52.066;5.358;2023-06-22T16:20:20;19.80;99.90
44447;DHT22;30152;52.066;5.358;2023-06-22T16:22:46;19.70;99.90
44447;DHT22;30152;52.066;5.358;2023-06-22T16:25:12;19.70;99.90
44447;DHT22;30152;52.066;5.358;2023-06-22T16:27:38;19.60;99.90
44447;DHT22;30152;52.066;5.358;2023-06-22T16:30:08;19.60;99.90
44447;DHT22;30152;52.066;5.358;2023-06-22T16:32:34;19.60;99.90
44447;DHT22;30152;52.066;5.358;2023-06-22T16:34:59;19.60;99.90
44447;DHT22;30152;52.066;5.358;2023-06-22T16:37:25;19.70;99.90
44447;DHT22;30152;52.066;5.358;2023-06-22T16:39:50;19.70;99.90
44447;DHT22;30152;52.066;5.358;2023-06-22T16:42:16;19.70;99.90
44447;DHT22;30152;52.066;5.358;2023-06-22T16:44:45;19.60;99.90
44447;DHT22;30152;52.066;5.358;2023-06-22T16:47:10;19.50;99.90
44447;DHT22;30152;52.066;5.358;2023-06-22T16:49:36;19.60;99.90
44447;DHT22;30152;52.066;5.358;2023-06-22T16:52:02;19.70;99.90
44447;DHT22;30152;52.066;5.358;2023-06-22T16:54:29;19.70;99.90
44447;DHT22;30152;52.066;5.358;2023-06-22T16:56:55;19.70;99.90
44447;DHT22;30152;52.066;5.358;2023-06-22T16:59:24;19.70;99.90
44447;DHT22;30152;52.066;5.358;2023-06-22T17:01:53;19.60;99.90
44447;DHT22;30152;52.066;5.358;2023-06-22T17:04:21;19.60;99.90
44447;DHT22;30152;52.066;5.358;2023-06-22T17:06:53;19.60;99.90
44447;DHT22;30152;52.066;5.358;2023-06-22T17:09:21;19.50;99.90
44447;DHT22;30152;52.066;5.358;2023-06-22T17:11:51;19.50;99.90
44447;DHT22;30152;52.066;5.358;2023-06-22T17:14:18;19.50;99.90
44447;DHT22;30152;52.066;5.358;2023-06-22T17:16:45;19.40;99.90
44447;DHT22;30152;52.066;5.358;2023-06-22T17:19:12;19.30;99.90
44447;DHT22;30152;52.066;5.358;2023-06-22T17:21:38;19.20;99.90
44447;DHT22;30152;52.066;5.358;2023-06-22T17:24:04;19.10;99.90
44447;DHT22;30152;52.066;5.358;2023-06-22T17:26:30;19.10;99.90
44447;DHT22;30152;52.066;5.358;2023-06-22T17:28:57;19.20;99.90
44447;DHT22;30152;52.066;5.358;2023-06-22T17:31:36;19.00;99.90
44447;DHT22;30152;52.066;5.358;2023-06-22T17:34:07;19.00;99.90
44447;DHT22;30152;52.066;5.358;2023-06-22T17:36:39;19.10;99.90
44447;DHT22;30152;52.066;5.358;2023-06-22T17:39:04;20.90;99.90
44447;DHT22;30152;52.066;5.358;2023-06-22T17:41:33;18.80;99.90
44447;DHT22;30152;52.066;5.358;2023-06-22T17:43:58;18.90;99.90
44447;DHT22;30152;52.066;5.358;2023-06-22T17:46:33;18.90;99.90
44447;DHT22;30152;52.066;5.358;2023-06-22T17:48:59;19.00;99.90
44447;DHT22;30152;52.066;5.358;2023-06-22T17:51:25;19.00;99.90
44447;DHT22;30152;52.066;5.358;2023-06-22T17:53:50;18.90;99.90
44447;DHT22;30152;52.066;5.358;2023-06-22T17:56:17;18.90;99.90
44447;DHT22;30152;52.066;5.358;2023-06-22T17:58:51;19.00;99.90
44447;DHT22;30152;52.066;5.358;2023-06-22T18:01:27;19.10;99.90
44447;DHT22;30152;52.066;5.358;2023-06-22T18:03:52;19.10;99.90
44447;DHT22;30152;52.066;5.358;2023-06-22T18:06:18;19.10;99.90
44447;DHT22;30152;52.066;5.358;2023-06-22T18:08:44;19.10;99.90
44447;DHT22;30152;52.066;5.358;2023-06-22T18:11:12;19.20;99.90
44447;DHT22;30152;52.066;5.358;2023-06-22T18:13:40;19.20;99.90
44447;DHT22;30152;52.066;5.358;2023-06-22T18:16:06;19.20;99.90
44447;DHT22;30152;52.066;5.358;2023-06-22T18:18:33;19.20;99.90
44447;DHT22;30152;52.066;5.358;2023-06-22T18:21:01;19.20;99.90
44447;DHT22;30152;52.066;5.358;2023-06-22T18:23:30;19.20;99.90
44447;DHT22;30152;52.066;5.358;2023-06-22T18:26:05;19.20;99.90
44447;DHT22;30152;52.066;5.358;2023-06-22T18:28:31;19.20;99.90
44447;DHT22;30152;52.066;5.358;2023-06-22T18:30:57;19.10;99.90
44447;DHT22;30152;52.066;5.358;2023-06-22T18:33:23;19.00;99.90
44447;DHT22;30152;52.066;5.358;2023-06-22T18:35:50;19.10;99.90
44447;DHT22;30152;52.066;5.358;2023-06-22T18:38:17;19.00;99.90
44447;DHT22;30152;52.066;5.358;2023-06-22T18:40:50;19.10;99.90
44447;DHT22;30152;52.066;5.358;2023-06-22T18:43:24;19.00;99.90
44447;DHT22;30152;52.066;5.358;2023-06-22T18:45:50;19.00;99.90
44447;DHT22;30152;52.066;5.358;2023-06-22T18:48:25;19.00;99.90
44447;DHT22;30152;52.066;5.358;2023-06-22T18:50:51;19.00;99.90
44447;DHT22;30152;52.066;5.358;2023-06-22T18:55:51;18.80;99.90
44447;DHT22;30152;52.066;5.358;2023-06-22T18:58:26;18.80;99.90
44447;DHT22;30152;52.066;5.358;2023-06-22T19:00:53;18.80;99.90
44447;DHT22;30152;52.066;5.358;2023-06-22T19:03:29;18.70;99.90
44447;DHT22;30152;52.066;5.358;2023-06-22T19:05:58;18.70;99.90
44447;DHT22;30152;52.066;5.358;2023-06-22T19:08:23;18.60;99.90
44447;DHT22;30152;52.066;5.358;2023-06-22T19:10:50;18.60;99.90
44447;DHT22;30152;52.066;5.358;2023-06-22T19:13:27;18.70;99.90
44447;DHT22;30152;52.066;5.358;2023-06-22T19:15:53;18.50;99.90
44447;DHT22;30152;52.066;5.358;2023-06-22T19:18:23;18.50;99.90
44447;DHT22;30152;52.066;5.358;2023-06-22T19:20:53;18.60;99.90
44447;DHT22;30152;52.066;5.358;2023-06-22T19:23:28;18.60;99.90
44447;DHT22;30152;52.066;5.358;2023-06-22T19:25:55;18.60;99.90
44447;DHT22;30152;52.066;5.358;2023-06-22T19:28:28;18.40;99.90
44447;DHT22;30152;52.066;5.358;2023-06-22T19:30:58;18.40;99.90
44447;DHT22;30152;52.066;5.358;2023-06-22T19:33:25;18.30;99.90
44447;DHT22;30152;52.066;5.358;2023-06-22T19:35:51;18.40;99.90
44447;DHT22;30152;52.066;5.358;2023-06-22T19:38:17;18.20;99.90
44447;DHT22;30152;52.066;5.358;2023-06-22T19:40:44;18.30;99.90
44447;DHT22;30152;52.066;5.358;2023-06-22T19:43:12;18.30;99.90
44447;DHT22;30152;52.066;5.358;2023-06-22T19:45:41;18.30;99.90
44447;DHT22;30152;52.066;5.358;2023-06-22T19:48:11;18.20;99.90
44447;DHT22;30152;52.066;5.358;2023-06-22T19:50:38;18.10;99.90
44447;DHT22;30152;52.066;5.358;2023-06-22T19:53:14;18.10;99.90
44447;DHT22;30152;52.066;5.358;2023-06-22T19:55:47;18.10;99.90
44447;DHT22;30152;52.066;5.358;2023-06-22T19:58:14;18.00;99.90
44447;DHT22;30152;52.066;5.358;2023-06-22T20:00:41;18.10;99.90
44447;DHT22;30152;52.066;5.358;2023-06-22T20:03:14;18.10;99.90
44447;DHT22;30152;52.066;5.358;2023-06-22T20:05:44;18.10;99.90
44447;DHT22;30152;52.066;5.358;2023-06-22T20:08:16;18.10;99.90
44447;DHT22;30152;52.066;5.358;2023-06-22T20:10:43;18.10;99.90
44447;DHT22;30152;52.066;5.358;2023-06-22T20:13:18;18.00;99.90
44447;DHT22;30152;52.066;5.358;2023-06-22T20:15:48;18.00;99.90
44447;DHT22;30152;52.066;5.358;2023-06-22T20:18:15;18.10;99.90
44447;DHT22;30152;52.066;5.358;2023-06-22T20:20:45;18.00;99.90
44447;DHT22;30152;52.066;5.358;2023-06-22T20:23:11;18.00;99.90
44447;DHT22;30152;52.066;5.358;2023-06-22T20:25:40;17.90;99.90
44447;DHT22;30152;52.066;5.358;2023-06-22T20:28:11;17.90;99.90
44447;DHT22;30152;52.066;5.358;2023-06-22T20:30:38;17.90;99.90
44447;DHT22;30152;52.066;5.358;2023-06-22T20:33:12;17.80;99.90
44447;DHT22;30152;52.066;5.358;2023-06-22T20:35:38;17.80;99.90
44447;DHT22;30152;52.066;5.358;2023-06-22T20:38:03;17.80;99.90
44447;DHT22;30152;52.066;5.358;2023-06-22T20:40:30;17.70;99.90
44447;DHT22;30152;52.066;5.358;2023-06-22T20:42:57;17.70;99.90
44447;DHT22;30152;52.066;5.358;2023-06-22T20:45:23;17.60;99.90
44447;DHT22;30152;52.066;5.358;2023-06-22T20:47:53;17.60;99.90
44447;DHT22;30152;52.066;5.358;2023-06-22T20:50:25;17.70;99.90
44447;DHT22;30152;52.066;5.358;2023-06-22T20:52:57;17.60;99.90
44447;DHT22;30152;52.066;5.358;2023-06-22T20:55:23;17.60;99.90
44447;DHT22;30152;52.066;5.358;2023-06-22T20:57:48;19.30;99.90
44447;DHT22;30152;52.066;5.358;2023-06-22T21:00:14;17.50;99.90
44447;DHT22;30152;52.066;5.358;2023-06-22T21:02:40;17.50;99.90
44447;DHT22;30152;52.066;5.358;2023-06-22T21:05:06;17.50;99.90
44447;DHT22;30152;52.066;5.358;2023-06-22T21:07:32;17.50;99.90
44447;DHT22;30152;52.066;5.358;2023-06-22T21:09:58;17.40;99.90
44447;DHT22;30152;52.066;5.358;2023-06-22T21:12:23;17.40;99.90
44447;DHT22;30152;52.066;5.358;2023-06-22T21:14:49;17.40;99.90
44447;DHT22;30152;52.066;5.358;2023-06-22T21:17:16;17.60;99.90
44447;DHT22;30152;52.066;5.358;2023-06-22T21:19:43;17.50;99.90
44447;DHT22;30152;52.066;5.358;2023-06-22T21:22:08;17.40;99.90
44447;DHT22;30152;52.066;5.358;2023-06-22T21:24:34;17.40;99.90
44447;DHT22;30152;52.066;5.358;2023-06-22T21:26:59;17.40;99.90
